sensor_id;sensor_type;location;lat;lon;timestamp;P1;durP1;ratioP1;P2;durP2;ratioP2
72373;SDS011;60349;64.132;-21.820;2023-03-23T00:02:22;11.70;;;5.78;;
72373;SDS011;60349;64.132;-21.820;2023-03-23T00:04:48;10.23;;;5.32;;
72373;SDS011;60349;64.132;-21.820;2023-03-23T00:07:15;10.20;;;5.03;;
72373;SDS011;60349;64.132;-21.820;2023-03-23T00:09:46;7.95;;;5.13;;
72373;SDS011;60349;64.132;-21.820;2023-03-23T00:12:12;11.38;;;5.93;;
72373;SDS011;60349;64.132;-21.820;2023-03-23T00:14:40;9.27;;;6.15;;
72373;SDS011;60349;64.132;-21.820;2023-03-23T00:17:08;8.90;;;5.28;;
72373;SDS011;60349;64.132;-21.820;2023-03-23T00:19:39;7.00;;;4.57;;
72373;SDS011;60349;64.132;-21.820;2023-03-23T00:22:14;7.57;;;4.57;;
72373;SDS011;60349;64.132;-21.820;2023-03-23T00:24:41;6.68;;;4.07;;
72373;SDS011;60349;64.132;-21.820;2023-03-23T00:27:07;9.18;;;5.20;;
72373;SDS011;60349;64.132;-21.820;2023-03-23T00:29:42;6.72;;;3.95;;
72373;SDS011;60349;64.132;-21.820;2023-03-23T00:32:10;8.07;;;4.03;;
72373;SDS011;60349;64.132;-21.820;2023-03-23T00:34:37;9.45;;;4.18;;
72373;SDS011;60349;64.132;-21.820;2023-03-23T00:37:05;8.88;;;4.25;;
72373;SDS011;60349;64.132;-21.820;2023-03-23T00:39:32;8.15;;;4.45;;
72373;SDS011;60349;64.132;-21.820;2023-03-23T00:42:01;7.38;;;3.78;;
72373;SDS011;60349;64.132;-21.820;2023-03-23T00:44:28;8.65;;;3.97;;
72373;SDS011;60349;64.132;-21.820;2023-03-23T00:46:55;6.78;;;3.90;;
72373;SDS011;60349;64.132;-21.820;2023-03-23T00:49:22;11.75;;;4.95;;
72373;SDS011;60349;64.132;-21.820;2023-03-23T00:51:52;11.50;;;4.53;;
72373;SDS011;60349;64.132;-21.820;2023-03-23T00:54:19;11.85;;;5.32;;
72373;SDS011;60349;64.132;-21.820;2023-03-23T00:56:46;9.65;;;5.43;;
72373;SDS011;60349;64.132;-21.820;2023-03-23T00:59:12;12.30;;;6.68;;
72373;SDS011;60349;64.132;-21.820;2023-03-23T01:01:38;10.48;;;6.38;;
72373;SDS011;60349;64.132;-21.820;2023-03-23T01:04:05;14.00;;;7.72;;
72373;SDS011;60349;64.132;-21.820;2023-03-23T01:06:32;12.00;;;7.40;;
72373;SDS011;60349;64.132;-21.820;2023-03-23T01:09:00;11.73;;;8.02;;
72373;SDS011;60349;64.132;-21.820;2023-03-23T01:11:28;11.02;;;7.22;;
72373;SDS011;60349;64.132;-21.820;2023-03-23T01:13:54;14.00;;;7.40;;
72373;SDS011;60349;64.132;-21.820;2023-03-23T01:16:20;10.20;;;6.35;;
72373;SDS011;60349;64.132;-21.820;2023-03-23T01:18:47;10.63;;;5.10;;
72373;SDS011;60349;64.132;-21.820;2023-03-23T01:21:14;8.93;;;4.95;;
72373;SDS011;60349;64.132;-21.820;2023-03-23T01:23:41;10.05;;;5.05;;
72373;SDS011;60349;64.132;-21.820;2023-03-23T01:26:08;9.80;;;5.28;;
72373;SDS011;60349;64.132;-21.820;2023-03-23T01:28:35;10.52;;;5.72;;
72373;SDS011;60349;64.132;-21.820;2023-03-23T01:31:05;9.75;;;4.57;;
72373;SDS011;60349;64.132;-21.820;2023-03-23T01:33:32;7.78;;;4.68;;
72373;SDS011;60349;64.132;-21.820;2023-03-23T01:36:06;6.50;;;4.18;;
72373;SDS011;60349;64.132;-21.820;2023-03-23T01:38:33;11.77;;;4.57;;
72373;SDS011;60349;64.132;-21.820;2023-03-23T01:40:59;11.95;;;5.75;;
72373;SDS011;60349;64.132;-21.820;2023-03-23T01:43:25;8.43;;;5.00;;
72373;SDS011;60349;64.132;-21.820;2023-03-23T01:45:51;10.55;;;5.38;;
72373;SDS011;60349;64.132;-21.820;2023-03-23T01:50:50;9.77;;;5.55;;
72373;SDS011;60349;64.132;-21.820;2023-03-23T01:53:17;10.45;;;5.63;;
72373;SDS011;60349;64.132;-21.820;2023-03-23T01:55:45;10.88;;;5.60;;
72373;SDS011;60349;64.132;-21.820;2023-03-23T01:58:15;12.15;;;5.45;;
72373;SDS011;60349;64.132;-21.820;2023-03-23T02:00:42;10.00;;;4.90;;
72373;SDS011;60349;64.132;-21.820;2023-03-23T02:03:09;9.65;;;4.85;;
72373;SDS011;60349;64.132;-21.820;2023-03-23T02:05:39;9.63;;;4.32;;
72373;SDS011;60349;64.132;-21.820;2023-03-23T02:08:05;9.02;;;5.43;;
72373;SDS011;60349;64.132;-21.820;2023-03-23T02:10:35;7.60;;;4.75;;
72373;SDS011;60349;64.132;-21.820;2023-03-23T02:13:01;8.88;;;3.75;;
72373;SDS011;60349;64.132;-21.820;2023-03-23T02:15:31;7.10;;;4.45;;
72373;SDS011;60349;64.132;-21.820;2023-03-23T02:33:21;8.70;;;4.03;;
72373;SDS011;60349;64.132;-21.820;2023-03-23T02:38:25;9.45;;;5.10;;
72373;SDS011;60349;64.132;-21.820;2023-03-23T02:40:54;8.50;;;4.65;;
72373;SDS011;60349;64.132;-21.820;2023-03-23T02:43:22;14.45;;;4.85;;
72373;SDS011;60349;64.132;-21.820;2023-03-23T02:45:50;11.35;;;4.60;;
72373;SDS011;60349;64.132;-21.820;2023-03-23T02:48:18;8.40;;;4.82;;
72373;SDS011;60349;64.132;-21.820;2023-03-23T02:50:46;9.55;;;5.82;;
72373;SDS011;60349;64.132;-21.820;2023-03-23T02:53:13;10.85;;;5.88;;
72373;SDS011;60349;64.132;-21.820;2023-03-23T02:55:41;11.13;;;5.68;;
72373;SDS011;60349;64.132;-21.820;2023-03-23T02:58:09;8.85;;;5.30;;
72373;SDS011;60349;64.132;-21.820;2023-03-23T03:00:35;7.90;;;4.85;;
72373;SDS011;60349;64.132;-21.820;2023-03-23T03:03:01;9.90;;;4.78;;
72373;SDS011;60349;64.132;-21.820;2023-03-23T03:16:02;8.50;;;4.47;;
72373;SDS011;60349;64.132;-21.820;2023-03-23T03:18:38;8.95;;;4.63;;
72373;SDS011;60349;64.132;-21.820;2023-03-23T03:21:09;8.20;;;4.22;;
72373;SDS011;60349;64.132;-21.820;2023-03-23T03:23:38;9.38;;;4.47;;
72373;SDS011;60349;64.132;-21.820;2023-03-23T03:26:06;12.45;;;6.35;;
72373;SDS011;60349;64.132;-21.820;2023-03-23T03:28:34;9.02;;;4.72;;
72373;SDS011;60349;64.132;-21.820;2023-03-23T03:31:01;13.02;;;6.78;;
72373;SDS011;60349;64.132;-21.820;2023-03-23T03:33:28;9.73;;;6.00;;
72373;SDS011;60349;64.132;-21.820;2023-03-23T03:36:01;9.48;;;6.30;;
72373;SDS011;60349;64.132;-21.820;2023-03-23T03:38:27;10.60;;;6.88;;
72373;SDS011;60349;64.132;-21.820;2023-03-23T03:40:54;12.55;;;7.65;;
72373;SDS011;60349;64.132;-21.820;2023-03-23T03:43:20;12.50;;;6.80;;
72373;SDS011;60349;64.132;-21.820;2023-03-23T03:45:46;10.57;;;6.38;;
72373;SDS011;60349;64.132;-21.820;2023-03-23T03:48:13;11.32;;;6.10;;
72373;SDS011;60349;64.132;-21.820;2023-03-23T03:50:39;11.80;;;6.88;;
72373;SDS011;60349;64.132;-21.820;2023-03-23T03:53:05;10.68;;;6.03;;
72373;SDS011;60349;64.132;-21.820;2023-03-23T03:55:32;11.77;;;7.15;;
72373;SDS011;60349;64.132;-21.820;2023-03-23T03:58:03;12.70;;;6.03;;
72373;SDS011;60349;64.132;-21.820;2023-03-23T04:00:29;11.85;;;6.30;;
72373;SDS011;60349;64.132;-21.820;2023-03-23T04:02:55;9.73;;;6.13;;
72373;SDS011;60349;64.132;-21.820;2023-03-23T04:05:24;10.77;;;6.25;;
72373;SDS011;60349;64.132;-21.820;2023-03-23T04:07:54;11.23;;;5.97;;
72373;SDS011;60349;64.132;-21.820;2023-03-23T04:10:26;9.63;;;6.00;;
72373;SDS011;60349;64.132;-21.820;2023-03-23T04:12:52;9.18;;;6.03;;
72373;SDS011;60349;64.132;-21.820;2023-03-23T04:15:19;10.57;;;6.25;;
72373;SDS011;60349;64.132;-21.820;2023-03-23T04:17:45;9.98;;;5.80;;
72373;SDS011;60349;64.132;-21.820;2023-03-23T04:20:12;12.05;;;6.38;;
72373;SDS011;60349;64.132;-21.820;2023-03-23T04:22:46;9.27;;;5.05;;
72373;SDS011;60349;64.132;-21.820;2023-03-23T04:25:14;10.45;;;5.88;;
72373;SDS011;60349;64.132;-21.820;2023-03-23T04:27:41;11.63;;;6.32;;
72373;SDS011;60349;64.132;-21.820;2023-03-23T04:30:11;9.00;;;5.93;;
72373;SDS011;60349;64.132;-21.820;2023-03-23T04:32:38;9.23;;;5.03;;
72373;SDS011;60349;64.132;-21.820;2023-03-23T04:35:11;10.13;;;5.50;;
72373;SDS011;60349;64.132;-21.820;2023-03-23T04:37:37;10.43;;;4.88;;
72373;SDS011;60349;64.132;-21.820;2023-03-23T04:40:05;11.13;;;6.25;;
72373;SDS011;60349;64.132;-21.820;2023-03-23T04:42:36;9.35;;;4.65;;
72373;SDS011;60349;64.132;-21.820;2023-03-23T04:45:02;12.48;;;6.00;;
72373;SDS011;60349;64.132;-21.820;2023-03-23T04:47:31;12.32;;;6.30;;
72373;SDS011;60349;64.132;-21.820;2023-03-23T04:49:58;9.48;;;5.22;;
72373;SDS011;60349;64.132;-21.820;2023-03-23T04:52:25;11.90;;;5.57;;
72373;SDS011;60349;64.132;-21.820;2023-03-23T04:54:53;8.02;;;5.45;;
72373;SDS011;60349;64.132;-21.820;2023-03-23T04:57:21;9.50;;;4.95;;
72373;SDS011;60349;64.132;-21.820;2023-03-23T04:59:47;8.43;;;5.82;;
72373;SDS011;60349;64.132;-21.820;2023-03-23T05:02:13;9.63;;;5.07;;
72373;SDS011;60349;64.132;-21.820;2023-03-23T05:04:42;13.70;;;6.00;;
72373;SDS011;60349;64.132;-21.820;2023-03-23T05:07:08;12.57;;;6.72;;
72373;SDS011;60349;64.132;-21.820;2023-03-23T05:09:36;9.93;;;5.57;;
72373;SDS011;60349;64.132;-21.820;2023-03-23T05:12:08;9.32;;;5.82;;
72373;SDS011;60349;64.132;-21.820;2023-03-23T05:14:35;10.38;;;5.95;;
72373;SDS011;60349;64.132;-21.820;2023-03-23T05:17:01;10.27;;;5.07;;
72373;SDS011;60349;64.132;-21.820;2023-03-23T05:19:28;9.60;;;6.40;;
72373;SDS011;60349;64.132;-21.820;2023-03-23T05:21:56;10.30;;;5.97;;
72373;SDS011;60349;64.132;-21.820;2023-03-23T05:24:28;7.65;;;5.47;;
72373;SDS011;60349;64.132;-21.820;2023-03-23T05:26:56;12.65;;;6.68;;
72373;SDS011;60349;64.132;-21.820;2023-03-23T05:29:22;8.27;;;5.47;;
72373;SDS011;60349;64.132;-21.820;2023-03-23T05:31:49;14.80;;;5.95;;
72373;SDS011;60349;64.132;-21.820;2023-03-23T05:34:15;10.38;;;6.47;;
72373;SDS011;60349;64.132;-21.820;2023-03-23T05:36:41;10.18;;;5.72;;
72373;SDS011;60349;64.132;-21.820;2023-03-23T05:39:09;9.00;;;5.55;;
72373;SDS011;60349;64.132;-21.820;2023-03-23T05:41:35;9.88;;;5.43;;
72373;SDS011;60349;64.132;-21.820;2023-03-23T05:44:02;12.00;;;5.65;;
72373;SDS011;60349;64.132;-21.820;2023-03-23T05:46:28;9.30;;;5.25;;
72373;SDS011;60349;64.132;-21.820;2023-03-23T05:48:55;9.43;;;4.72;;
72373;SDS011;60349;64.132;-21.820;2023-03-23T05:51:21;8.95;;;4.35;;
72373;SDS011;60349;64.132;-21.820;2023-03-23T05:53:47;6.57;;;3.33;;
72373;SDS011;60349;64.132;-21.820;2023-03-23T05:56:13;6.28;;;2.75;;
72373;SDS011;60349;64.132;-21.820;2023-03-23T05:58:40;9.23;;;1.80;;
72373;SDS011;60349;64.132;-21.820;2023-03-23T06:01:06;3.80;;;0.90;;
72373;SDS011;60349;64.132;-21.820;2023-03-23T06:03:33;4.10;;;0.93;;
72373;SDS011;60349;64.132;-21.820;2023-03-23T06:06:01;2.78;;;0.80;;
72373;SDS011;60349;64.132;-21.820;2023-03-23T06:08:28;3.22;;;0.43;;
72373;SDS011;60349;64.132;-21.820;2023-03-23T06:10:54;4.65;;;0.43;;
72373;SDS011;60349;64.132;-21.820;2023-03-23T06:13:20;3.10;;;0.30;;
72373;SDS011;60349;64.132;-21.820;2023-03-23T06:15:46;7.15;;;0.43;;
72373;SDS011;60349;64.132;-21.820;2023-03-23T06:18:13;1.73;;;0.30;;
72373;SDS011;60349;64.132;-21.820;2023-03-23T06:20:39;2.75;;;0.20;;
72373;SDS011;60349;64.132;-21.820;2023-03-23T06:23:06;1.95;;;0.17;;
72373;SDS011;60349;64.132;-21.820;2023-03-23T06:25:33;1.80;;;0.10;;
72373;SDS011;60349;64.132;-21.820;2023-03-23T06:27:59;1.38;;;0.20;;
72373;SDS011;60349;64.132;-21.820;2023-03-23T06:30:26;1.17;;;0.10;;
72373;SDS011;60349;64.132;-21.820;2023-03-23T06:32:53;1.50;;;0.10;;
72373;SDS011;60349;64.132;-21.820;2023-03-23T06:35:20;3.70;;;0.10;;
72373;SDS011;60349;64.132;-21.820;2023-03-23T06:37:46;1.00;;;0.10;;
72373;SDS011;60349;64.132;-21.820;2023-03-23T06:40:13;2.35;;;0.10;;
72373;SDS011;60349;64.132;-21.820;2023-03-23T06:42:39;1.38;;;0.40;;
72373;SDS011;60349;64.132;-21.820;2023-03-23T06:45:05;1.30;;;0.10;;
72373;SDS011;60349;64.132;-21.820;2023-03-23T06:47:32;1.05;;;0.10;;
72373;SDS011;60349;64.132;-21.820;2023-03-23T06:49:58;1.67;;;0.00;;
72373;SDS011;60349;64.132;-21.820;2023-03-23T06:52:25;2.15;;;0.05;;
72373;SDS011;60349;64.132;-21.820;2023-03-23T06:54:51;1.17;;;0.10;;
72373;SDS011;60349;64.132;-21.820;2023-03-23T06:57:18;3.55;;;0.17;;
72373;SDS011;60349;64.132;-21.820;2023-03-23T06:59:44;0.73;;;0.00;;
72373;SDS011;60349;64.132;-21.820;2023-03-23T07:02:11;3.60;;;0.35;;
72373;SDS011;60349;64.132;-21.820;2023-03-23T07:04:38;0.85;;;0.10;;
72373;SDS011;60349;64.132;-21.820;2023-03-23T07:07:05;1.52;;;0.00;;
72373;SDS011;60349;64.132;-21.820;2023-03-23T07:09:33;2.55;;;0.10;;
72373;SDS011;60349;64.132;-21.820;2023-03-23T07:11:59;1.65;;;0.10;;
72373;SDS011;60349;64.132;-21.820;2023-03-23T07:14:25;6.40;;;0.08;;
72373;SDS011;60349;64.132;-21.820;2023-03-23T07:16:51;0.80;;;0.00;;
72373;SDS011;60349;64.132;-21.820;2023-03-23T07:19:18;1.58;;;0.00;;
72373;SDS011;60349;64.132;-21.820;2023-03-23T07:21:45;1.00;;;0.00;;
72373;SDS011;60349;64.132;-21.820;2023-03-23T07:24:11;1.92;;;0.00;;
72373;SDS011;60349;64.132;-21.820;2023-03-23T07:26:41;3.05;;;0.20;;
72373;SDS011;60349;64.132;-21.820;2023-03-23T07:29:08;2.60;;;0.15;;
72373;SDS011;60349;64.132;-21.820;2023-03-23T07:31:35;1.85;;;0.00;;
72373;SDS011;60349;64.132;-21.820;2023-03-23T07:34:01;2.45;;;0.10;;
72373;SDS011;60349;64.132;-21.820;2023-03-23T07:36:28;1.45;;;0.10;;
72373;SDS011;60349;64.132;-21.820;2023-03-23T07:38:54;2.05;;;0.15;;
72373;SDS011;60349;64.132;-21.820;2023-03-23T07:41:21;2.53;;;0.45;;
72373;SDS011;60349;64.132;-21.820;2023-03-23T07:43:47;6.82;;;0.10;;
72373;SDS011;60349;64.132;-21.820;2023-03-23T07:46:13;5.32;;;0.65;;
72373;SDS011;60349;64.132;-21.820;2023-03-23T07:48:40;7.05;;;0.10;;
72373;SDS011;60349;64.132;-21.820;2023-03-23T07:51:06;3.40;;;0.00;;
72373;SDS011;60349;64.132;-21.820;2023-03-23T07:53:33;3.75;;;0.20;;
72373;SDS011;60349;64.132;-21.820;2023-03-23T07:55:59;6.97;;;0.10;;
72373;SDS011;60349;64.132;-21.820;2023-03-23T07:58:28;6.57;;;0.10;;
72373;SDS011;60349;64.132;-21.820;2023-03-23T08:00:54;11.68;;;0.20;;
72373;SDS011;60349;64.132;-21.820;2023-03-23T08:03:22;3.78;;;0.10;;
72373;SDS011;60349;64.132;-21.820;2023-03-23T08:05:49;2.92;;;0.10;;
72373;SDS011;60349;64.132;-21.820;2023-03-23T08:08:15;3.90;;;0.17;;
72373;SDS011;60349;64.132;-21.820;2023-03-23T08:10:41;10.85;;;0.20;;
72373;SDS011;60349;64.132;-21.820;2023-03-23T08:13:07;12.70;;;0.45;;
72373;SDS011;60349;64.132;-21.820;2023-03-23T08:15:34;12.43;;;0.35;;
72373;SDS011;60349;64.132;-21.820;2023-03-23T08:18:02;11.82;;;0.40;;
72373;SDS011;60349;64.132;-21.820;2023-03-23T08:20:28;9.23;;;0.20;;
72373;SDS011;60349;64.132;-21.820;2023-03-23T08:22:55;10.52;;;0.20;;
72373;SDS011;60349;64.132;-21.820;2023-03-23T08:25:22;6.35;;;0.40;;
72373;SDS011;60349;64.132;-21.820;2023-03-23T08:27:52;17.17;;;0.55;;
72373;SDS011;60349;64.132;-21.820;2023-03-23T08:30:19;14.35;;;1.33;;
72373;SDS011;60349;64.132;-21.820;2023-03-23T08:32:46;12.30;;;0.20;;
72373;SDS011;60349;64.132;-21.820;2023-03-23T08:35:13;11.13;;;0.32;;
72373;SDS011;60349;64.132;-21.820;2023-03-23T08:37:40;6.90;;;0.20;;
72373;SDS011;60349;64.132;-21.820;2023-03-23T08:40:07;6.65;;;0.20;;
72373;SDS011;60349;64.132;-21.820;2023-03-23T08:42:35;6.18;;;0.20;;
72373;SDS011;60349;64.132;-21.820;2023-03-23T08:45:02;8.75;;;0.10;;
72373;SDS011;60349;64.132;-21.820;2023-03-23T08:47:29;4.13;;;0.10;;
72373;SDS011;60349;64.132;-21.820;2023-03-23T08:49:56;9.23;;;0.20;;
72373;SDS011;60349;64.132;-21.820;2023-03-23T08:52:22;5.88;;;0.30;;
72373;SDS011;60349;64.132;-21.820;2023-03-23T08:54:48;5.07;;;0.10;;
72373;SDS011;60349;64.132;-21.820;2023-03-23T08:57:14;5.10;;;0.10;;
72373;SDS011;60349;64.132;-21.820;2023-03-23T08:59:41;3.45;;;0.10;;
72373;SDS011;60349;64.132;-21.820;2023-03-23T09:02:10;2.75;;;0.10;;
72373;SDS011;60349;64.132;-21.820;2023-03-23T09:04:40;3.97;;;0.10;;
72373;SDS011;60349;64.132;-21.820;2023-03-23T09:07:09;1.15;;;0.10;;
72373;SDS011;60349;64.132;-21.820;2023-03-23T09:09:37;3.40;;;0.10;;
72373;SDS011;60349;64.132;-21.820;2023-03-23T09:12:07;2.65;;;0.00;;
72373;SDS011;60349;64.132;-21.820;2023-03-23T09:14:33;3.63;;;0.10;;
72373;SDS011;60349;64.132;-21.820;2023-03-23T09:17:00;1.50;;;0.00;;
72373;SDS011;60349;64.132;-21.820;2023-03-23T09:19:26;3.13;;;0.10;;
72373;SDS011;60349;64.132;-21.820;2023-03-23T09:21:52;14.35;;;0.10;;
72373;SDS011;60349;64.132;-21.820;2023-03-23T09:24:19;1.23;;;0.00;;
72373;SDS011;60349;64.132;-21.820;2023-03-23T09:26:46;1.92;;;0.00;;
72373;SDS011;60349;64.132;-21.820;2023-03-23T09:29:12;1.50;;;0.10;;
72373;SDS011;60349;64.132;-21.820;2023-03-23T09:31:39;8.48;;;0.73;;
72373;SDS011;60349;64.132;-21.820;2023-03-23T09:34:07;3.78;;;1.13;;
72373;SDS011;60349;64.132;-21.820;2023-03-23T09:36:35;8.13;;;2.80;;
72373;SDS011;60349;64.132;-21.820;2023-03-23T09:39:01;6.57;;;2.80;;
72373;SDS011;60349;64.132;-21.820;2023-03-23T09:47:00;7.72;;;2.58;;
72373;SDS011;60349;64.132;-21.820;2023-03-23T09:52:03;4.88;;;1.83;;
72373;SDS011;60349;64.132;-21.820;2023-03-23T09:54:38;6.85;;;2.17;;
72373;SDS011;60349;64.132;-21.820;2023-03-23T09:57:11;7.10;;;1.75;;
72373;SDS011;60349;64.132;-21.820;2023-03-23T09:59:42;4.72;;;1.10;;
72373;SDS011;60349;64.132;-21.820;2023-03-23T10:02:17;7.47;;;0.68;;
72373;SDS011;60349;64.132;-21.820;2023-03-23T10:04:45;5.63;;;0.85;;
72373;SDS011;60349;64.132;-21.820;2023-03-23T10:07:13;3.75;;;0.50;;
72373;SDS011;60349;64.132;-21.820;2023-03-23T10:09:41;4.93;;;0.30;;
72373;SDS011;60349;64.132;-21.820;2023-03-23T10:17:26;2.30;;;0.15;;
72373;SDS011;60349;64.132;-21.820;2023-03-23T10:23:05;1.10;;;0.08;;
72373;SDS011;60349;64.132;-21.820;2023-03-23T10:25:28;1.60;;;0.20;;
72373;SDS011;60349;64.132;-21.820;2023-03-23T10:28:01;1.13;;;0.08;;
72373;SDS011;60349;64.132;-21.820;2023-03-23T10:30:31;3.25;;;0.10;;
72373;SDS011;60349;64.132;-21.820;2023-03-23T10:33:03;2.90;;;0.10;;
72373;SDS011;60349;64.132;-21.820;2023-03-23T10:35:50;0.93;;;0.10;;
72373;SDS011;60349;64.132;-21.820;2023-03-23T10:38:25;2.53;;;0.08;;
72373;SDS011;60349;64.132;-21.820;2023-03-23T10:41:00;1.65;;;0.10;;
72373;SDS011;60349;64.132;-21.820;2023-03-23T10:43:28;1.85;;;0.10;;
72373;SDS011;60349;64.132;-21.820;2023-03-23T10:45:59;1.13;;;0.00;;
72373;SDS011;60349;64.132;-21.820;2023-03-23T10:48:31;0.32;;;0.00;;
72373;SDS011;60349;64.132;-21.820;2023-03-23T10:50:59;1.45;;;0.08;;
72373;SDS011;60349;64.132;-21.820;2023-03-23T10:53:34;2.13;;;0.10;;
72373;SDS011;60349;64.132;-21.820;2023-03-23T10:56:01;1.25;;;0.00;;
72373;SDS011;60349;64.132;-21.820;2023-03-23T10:58:29;0.80;;;0.05;;
72373;SDS011;60349;64.132;-21.820;2023-03-23T11:00:57;2.50;;;0.00;;
72373;SDS011;60349;64.132;-21.820;2023-03-23T11:05:58;5.45;;;0.00;;
72373;SDS011;60349;64.132;-21.820;2023-03-23T11:08:26;0.57;;;0.10;;
72373;SDS011;60349;64.132;-21.820;2023-03-23T11:10:55;0.75;;;0.00;;
72373;SDS011;60349;64.132;-21.820;2023-03-23T11:13:28;5.18;;;0.10;;
72373;SDS011;60349;64.132;-21.820;2023-03-23T11:15:55;1.08;;;0.00;;
72373;SDS011;60349;64.132;-21.820;2023-03-23T11:20:49;1.85;;;0.05;;
72373;SDS011;60349;64.132;-21.820;2023-03-23T11:23:23;1.38;;;0.00;;
72373;SDS011;60349;64.132;-21.820;2023-03-23T11:25:54;1.17;;;0.10;;
72373;SDS011;60349;64.132;-21.820;2023-03-23T11:28:22;2.45;;;0.00;;
72373;SDS011;60349;64.132;-21.820;2023-03-23T11:30:53;3.47;;;0.00;;
72373;SDS011;60349;64.132;-21.820;2023-03-23T11:33:19;2.20;;;0.10;;
72373;SDS011;60349;64.132;-21.820;2023-03-23T11:35:45;1.42;;;0.00;;
72373;SDS011;60349;64.132;-21.820;2023-03-23T11:38:17;1.40;;;0.00;;
72373;SDS011;60349;64.132;-21.820;2023-03-23T11:40:48;3.22;;;0.10;;
72373;SDS011;60349;64.132;-21.820;2023-03-23T11:43:17;2.58;;;0.03;;
72373;SDS011;60349;64.132;-21.820;2023-03-23T11:48:39;2.30;;;0.00;;
72373;SDS011;60349;64.132;-21.820;2023-03-23T11:53:45;2.75;;;0.10;;
72373;SDS011;60349;64.132;-21.820;2023-03-23T11:58:40;1.60;;;0.00;;
72373;SDS011;60349;64.132;-21.820;2023-03-23T12:01:11;2.65;;;0.00;;
72373;SDS011;60349;64.132;-21.820;2023-03-23T12:32:49;0.95;;;0.10;;
72373;SDS011;60349;64.132;-21.820;2023-03-23T12:48:55;3.95;;;0.05;;
72373;SDS011;60349;64.132;-21.820;2023-03-23T12:51:26;0.75;;;0.00;;
72373;SDS011;60349;64.132;-21.820;2023-03-23T12:58:50;1.73;;;0.20;;
72373;SDS011;60349;64.132;-21.820;2023-03-23T13:03:51;1.77;;;0.00;;
72373;SDS011;60349;64.132;-21.820;2023-03-23T13:06:35;1.70;;;0.00;;
72373;SDS011;60349;64.132;-21.820;2023-03-23T13:09:03;1.13;;;0.05;;
72373;SDS011;60349;64.132;-21.820;2023-03-23T13:11:35;0.60;;;0.00;;
72373;SDS011;60349;64.132;-21.820;2023-03-23T13:24:26;1.10;;;0.00;;
72373;SDS011;60349;64.132;-21.820;2023-03-23T13:26:53;2.17;;;0.20;;
72373;SDS011;60349;64.132;-21.820;2023-03-23T13:29:22;0.32;;;0.00;;
72373;SDS011;60349;64.132;-21.820;2023-03-23T13:31:50;2.45;;;0.05;;
72373;SDS011;60349;64.132;-21.820;2023-03-23T13:34:18;2.15;;;0.00;;
72373;SDS011;60349;64.132;-21.820;2023-03-23T13:39:21;0.77;;;0.00;;
72373;SDS011;60349;64.132;-21.820;2023-03-23T13:41:59;3.67;;;0.10;;
72373;SDS011;60349;64.132;-21.820;2023-03-23T13:44:26;2.05;;;0.00;;
72373;SDS011;60349;64.132;-21.820;2023-03-23T13:47:07;0.50;;;0.00;;
72373;SDS011;60349;64.132;-21.820;2023-03-23T13:49:44;0.65;;;0.00;;
72373;SDS011;60349;64.132;-21.820;2023-03-23T13:52:15;0.93;;;0.10;;
72373;SDS011;60349;64.132;-21.820;2023-03-23T13:54:44;1.50;;;0.00;;
72373;SDS011;60349;64.132;-21.820;2023-03-23T13:59:57;1.88;;;0.28;;
72373;SDS011;60349;64.132;-21.820;2023-03-23T14:02:37;1.45;;;0.10;;
72373;SDS011;60349;64.132;-21.820;2023-03-23T14:07:52;2.47;;;0.10;;
72373;SDS011;60349;64.132;-21.820;2023-03-23T14:10:19;0.60;;;0.00;;
72373;SDS011;60349;64.132;-21.820;2023-03-23T14:12:45;0.70;;;0.00;;
72373;SDS011;60349;64.132;-21.820;2023-03-23T14:15:12;3.35;;;0.17;;
72373;SDS011;60349;64.132;-21.820;2023-03-23T14:17:42;1.42;;;0.00;;
72373;SDS011;60349;64.132;-21.820;2023-03-23T14:20:15;1.00;;;0.10;;
72373;SDS011;60349;64.132;-21.820;2023-03-23T14:22:45;2.90;;;0.10;;
72373;SDS011;60349;64.132;-21.820;2023-03-23T14:25:12;1.27;;;0.10;;
72373;SDS011;60349;64.132;-21.820;2023-03-23T14:27:39;4.30;;;0.10;;
72373;SDS011;60349;64.132;-21.820;2023-03-23T14:30:07;2.10;;;0.13;;
72373;SDS011;60349;64.132;-21.820;2023-03-23T14:32:34;4.63;;;0.30;;
72373;SDS011;60349;64.132;-21.820;2023-03-23T14:35:45;1.42;;;0.20;;
72373;SDS011;60349;64.132;-21.820;2023-03-23T14:37:46;4.32;;;0.40;;
72373;SDS011;60349;64.132;-21.820;2023-03-23T14:40:14;3.55;;;0.25;;
72373;SDS011;60349;64.132;-21.820;2023-03-23T14:42:41;3.28;;;0.17;;
72373;SDS011;60349;64.132;-21.820;2023-03-23T14:45:12;1.60;;;0.20;;
72373;SDS011;60349;64.132;-21.820;2023-03-23T14:47:42;2.78;;;0.20;;
72373;SDS011;60349;64.132;-21.820;2023-03-23T14:56:20;4.40;;;0.10;;
72373;SDS011;60349;64.132;-21.820;2023-03-23T14:58:51;0.80;;;0.10;;
72373;SDS011;60349;64.132;-21.820;2023-03-23T15:01:24;2.50;;;0.30;;
72373;SDS011;60349;64.132;-21.820;2023-03-23T15:03:59;1.92;;;0.10;;
72373;SDS011;60349;64.132;-21.820;2023-03-23T15:06:26;1.70;;;0.10;;
72373;SDS011;60349;64.132;-21.820;2023-03-23T15:08:54;2.50;;;0.10;;
72373;SDS011;60349;64.132;-21.820;2023-03-23T15:13:48;2.20;;;0.00;;
72373;SDS011;60349;64.132;-21.820;2023-03-23T15:16:18;2.00;;;0.10;;
72373;SDS011;60349;64.132;-21.820;2023-03-23T15:18:55;3.83;;;0.10;;
72373;SDS011;60349;64.132;-21.820;2023-03-23T15:22:13;1.42;;;0.10;;
72373;SDS011;60349;64.132;-21.820;2023-03-23T15:24:24;1.30;;;0.00;;
72373;SDS011;60349;64.132;-21.820;2023-03-23T15:26:51;0.98;;;0.00;;
72373;SDS011;60349;64.132;-21.820;2023-03-23T15:29:21;1.70;;;0.00;;
72373;SDS011;60349;64.132;-21.820;2023-03-23T15:31:55;3.72;;;0.00;;
72373;SDS011;60349;64.132;-21.820;2023-03-23T15:34:27;2.08;;;0.00;;
72373;SDS011;60349;64.132;-21.820;2023-03-23T15:36:55;1.40;;;0.00;;
72373;SDS011;60349;64.132;-21.820;2023-03-23T15:39:21;1.77;;;0.10;;
72373;SDS011;60349;64.132;-21.820;2023-03-23T15:41:48;0.85;;;0.00;;
72373;SDS011;60349;64.132;-21.820;2023-03-23T15:44:25;1.77;;;0.10;;
72373;SDS011;60349;64.132;-21.820;2023-03-23T15:47:03;3.45;;;0.00;;
72373;SDS011;60349;64.132;-21.820;2023-03-23T15:49:29;0.50;;;0.00;;
72373;SDS011;60349;64.132;-21.820;2023-03-23T15:51:55;2.33;;;0.05;;
72373;SDS011;60349;64.132;-21.820;2023-03-23T15:54:21;1.17;;;0.00;;
72373;SDS011;60349;64.132;-21.820;2023-03-23T15:56:48;2.97;;;0.00;;
72373;SDS011;60349;64.132;-21.820;2023-03-23T15:59:14;1.45;;;0.00;;
72373;SDS011;60349;64.132;-21.820;2023-03-23T16:01:41;0.52;;;0.00;;
72373;SDS011;60349;64.132;-21.820;2023-03-23T16:04:09;2.00;;;0.10;;
72373;SDS011;60349;64.132;-21.820;2023-03-23T16:06:37;1.10;;;0.00;;
72373;SDS011;60349;64.132;-21.820;2023-03-23T16:09:03;0.55;;;0.25;;
72373;SDS011;60349;64.132;-21.820;2023-03-23T16:11:30;2.40;;;0.00;;
72373;SDS011;60349;64.132;-21.820;2023-03-23T16:13:57;0.85;;;0.00;;
72373;SDS011;60349;64.132;-21.820;2023-03-23T16:16:25;0.82;;;0.00;;
72373;SDS011;60349;64.132;-21.820;2023-03-23T16:18:52;2.97;;;0.20;;
72373;SDS011;60349;64.132;-21.820;2023-03-23T16:21:19;1.02;;;0.03;;
72373;SDS011;60349;64.132;-21.820;2023-03-23T16:23:45;0.70;;;0.00;;
72373;SDS011;60349;64.132;-21.820;2023-03-23T16:26:12;2.25;;;0.00;;
72373;SDS011;60349;64.132;-21.820;2023-03-23T16:28:38;0.60;;;0.00;;
72373;SDS011;60349;64.132;-21.820;2023-03-23T16:31:05;3.78;;;0.40;;
72373;SDS011;60349;64.132;-21.820;2023-03-23T16:33:31;1.08;;;0.00;;
72373;SDS011;60349;64.132;-21.820;2023-03-23T16:35:57;2.35;;;0.08;;
72373;SDS011;60349;64.132;-21.820;2023-03-23T16:38:23;1.25;;;0.10;;
72373;SDS011;60349;64.132;-21.820;2023-03-23T16:40:50;2.10;;;0.00;;
72373;SDS011;60349;64.132;-21.820;2023-03-23T16:43:16;3.50;;;0.52;;